Time;durP1;ratioP1;P1;durP2;ratioP2;P2;SDS_P1;SDS_P2;PMS_P1;PMS_P2;Temp;Humidity;BMP_temperature;BMP_pressure;BME280_temperature;BME280_humidity;BME280_pressure;Samples;Min_cycle;Max_cycle;Signal;HPM_P1;HPM_P2
2024/03/02 00:00:16;;;;;;;6.45;4.80;;;5.30;99.90;;;;;;5033927;28;20227;-73
2024/03/02 00:02:43;;;;;;;6.57;4.78;;;5.30;99.90;;;;;;5029338;28;20210;-73
2024/03/02 00:05:13;;;;;;;4.57;3.50;;;5.30;99.90;;;;;;5033866;28;20232;-73
2024/03/02 00:07:42;;;;;;;6.07;4.60;;;5.30;99.90;;;;;;5034083;28;20213;-73
2024/03/02 00:10:11;;;;;;;4.38;3.53;;;5.30;99.90;;;;;;5033629;28;20223;-74
2024/03/02 00:12:38;;;;;;;5.63;4.20;;;5.30;99.90;;;;;;5033958;28;20263;-73
2024/03/02 00:15:07;;;;;;;5.95;3.92;;;5.20;99.90;;;;;;5033813;28;20229;-73
2024/03/02 00:17:34;;;;;;;4.55;3.63;;;5.20;99.90;;;;;;5033672;28;20594;-73
2024/03/02 00:20:03;;;;;;;13.68;4.57;;;5.30;99.90;;;;;;5033448;28;20203;-74
2024/03/02 00:22:31;;;;;;;5.05;3.72;;;5.20;99.90;;;;;;5033489;28;20244;-73
2024/03/02 00:24:59;;;;;;;7.15;5.13;;;5.30;99.90;;;;;;5033547;28;20240;-73
2024/03/02 00:27:26;;;;;;;5.97;3.90;;;5.30;99.90;;;;;;5033488;28;20209;-74
2024/03/02 00:29:52;;;;;;;6.32;4.10;;;5.30;99.90;;;;;;5033454;28;20610;-73
2024/03/02 00:32:19;;;;;;;7.30;3.83;;;5.30;99.90;;;;;;5033294;28;20202;-73
2024/03/02 00:34:46;;;;;;;7.68;3.92;;;5.30;99.90;;;;;;5033588;28;20225;-73
2024/03/02 00:37:12;;;;;;;5.90;4.10;;;5.30;99.90;;;;;;5032640;28;20206;-73
2024/03/02 00:39:41;;;;;;;6.50;3.90;;;5.40;99.90;;;;;;5033206;28;20296;-73
2024/03/02 00:42:08;;;;;;;6.00;3.55;;;5.40;99.90;;;;;;5033421;28;20209;-73
2024/03/02 00:44:35;;;;;;;5.35;3.80;;;5.40;99.90;;;;;;5033127;28;20269;-73
2024/03/02 00:47:03;;;;;;;4.70;4.22;;;5.40;99.90;;;;;;5033519;28;20216;-74
2024/03/02 00:49:30;;;;;;;5.00;3.90;;;5.40;99.90;;;;;;5032799;28;20229;-73
2024/03/02 00:51:57;;;;;;;6.80;4.05;;;5.40;99.90;;;;;;5033427;28;20204;-73
2024/03/02 00:54:25;;;;;;;5.88;3.72;;;5.40;99.90;;;;;;5033047;28;20221;-73
2024/03/02 00:56:55;;;;;;;6.75;4.97;;;5.40;99.90;;;;;;5033407;28;20209;-73
2024/03/02 00:59:22;;;;;;;3.88;3.33;;;5.40;99.90;;;;;;5032547;28;20201;-73
2024/03/02 01:01:49;;;;;;;4.68;4.22;;;5.50;99.90;;;;;;5033168;28;20205;-73
2024/03/02 01:04:16;;;;;;;4.70;4.30;;;5.50;99.90;;;;;;5032691;28;20225;-73
2024/03/02 01:06:43;;;;;;;9.32;4.18;;;5.50;99.90;;;;;;5027400;28;20228;-73
2024/03/02 01:09:12;;;;;;;5.45;4.32;;;5.50;99.90;;;;;;5032439;28;20231;-73
2024/03/02 01:11:39;;;;;;;7.22;4.65;;;5.40;99.90;;;;;;5032804;28;20210;-73
2024/03/02 01:14:07;;;;;;;5.18;3.70;;;5.40;99.90;;;;;;5032786;28;20224;-72
2024/03/02 01:16:34;;;;;;;5.22;3.78;;;5.40;99.90;;;;;;5032731;28;20209;-71
2024/03/02 01:19:00;;;;;;;5.82;4.72;;;5.40;99.90;;;;;;5032476;28;20202;-72
2024/03/02 01:21:27;;;;;;;7.05;3.70;;;5.40;99.90;;;;;;5030393;28;20213;-72
2024/03/02 01:23:54;;;;;;;6.00;5.05;;;5.30;99.90;;;;;;5032781;28;20224;-72
2024/03/02 01:26:20;;;;;;;8.35;4.00;;;5.30;99.90;;;;;;5032301;28;20206;-72
2024/03/02 01:28:47;;;;;;;4.45;4.05;;;5.30;99.90;;;;;;5032253;28;20228;-72
2024/03/02 01:31:15;;;;;;;6.07;4.47;;;5.20;99.90;;;;;;5032304;28;20301;-72
2024/03/02 01:33:42;;;;;;;5.13;3.63;;;5.10;99.90;;;;;;5026324;28;20224;-72
2024/03/02 01:36:09;;;;;;;5.97;4.10;;;5.10;99.90;;;;;;5032342;28;20205;-72
2024/03/02 01:38:35;;;;;;;7.22;4.45;;;5.00;99.90;;;;;;5032247;28;20200;-72
2024/03/02 01:41:03;;;;;;;7.97;4.72;;;4.90;99.90;;;;;;5032088;28;20208;-72
2024/03/02 01:43:30;;;;;;;8.32;4.43;;;4.90;99.90;;;;;;5030440;28;20216;-72
2024/03/02 01:45:57;;;;;;;6.15;3.35;;;4.80;99.90;;;;;;5032382;28;20590;-72
2024/03/02 01:48:25;;;;;;;6.00;4.30;;;4.80;99.90;;;;;;5030960;28;20228;-72
2024/03/02 01:50:52;;;;;;;3.15;2.83;;;4.70;99.90;;;;;;5031968;28;20212;-72
2024/03/02 01:53:19;;;;;;;5.07;3.90;;;4.70;99.90;;;;;;5031671;28;20205;-72
2024/03/02 01:55:45;;;;;;;4.53;4.05;;;4.60;99.90;;;;;;5032109;28;20218;-74
2024/03/02 01:58:12;;;;;;;5.38;4.00;;;4.50;99.90;;;;;;5031754;28;20207;-72
2024/03/02 02:00:39;;;;;;;7.60;4.00;;;4.50;99.90;;;;;;5031804;28;20209;-72
2024/03/02 02:03:06;;;;;;;9.63;4.85;;;4.50;99.90;;;;;;5031846;28;20213;-72
2024/03/02 02:05:35;;;;;;;4.85;3.83;;;4.40;99.90;;;;;;5031618;28;20587;-72
2024/03/02 02:08:02;;;;;;;11.18;5.35;;;4.40;99.90;;;;;;5031706;28;20213;-72
2024/03/02 02:10:29;;;;;;;5.68;3.85;;;4.30;99.90;;;;;;5031272;28;20247;-72
2024/03/02 02:12:55;;;;;;;4.28;3.55;;;4.30;99.90;;;;;;5031723;28;20209;-72
2024/03/02 02:15:26;;;;;;;7.30;4.18;;;4.30;99.90;;;;;;5031262;28;20578;-71
2024/03/02 02:17:53;;;;;;;6.60;4.47;;;4.30;99.90;;;;;;5031811;28;20232;-72
2024/03/02 02:20:20;;;;;;;7.90;4.85;;;4.30;99.90;;;;;;5030892;28;20254;-71
2024/03/02 02:22:59;;;;;;;5.90;3.63;;;4.20;99.90;;;;;;5031837;28;20216;-72
2024/03/02 02:25:26;;;;;;;5.97;4.00;;;4.30;99.90;;;;;;5031167;28;20232;-72
2024/03/02 02:27:52;;;;;;;6.38;4.28;;;4.20;99.90;;;;;;5031552;28;20204;-72
2024/03/02 02:30:24;;;;;;;8.32;4.80;;;4.20;99.90;;;;;;5030775;28;20235;-72
2024/03/02 02:32:51;;;;;;;6.82;5.30;;;4.20;99.90;;;;;;5031406;28;20201;-72
2024/03/02 02:35:18;;;;;;;7.05;5.45;;;4.20;99.90;;;;;;5031046;28;20229;-72
2024/03/02 02:37:46;;;;;;;7.28;4.97;;;4.20;99.90;;;;;;5036205;28;20208;-72
2024/03/02 02:40:14;;;;;;;6.85;5.07;;;4.10;99.90;;;;;;5031549;28;20204;-72
2024/03/02 02:42:41;;;;;;;6.82;4.25;;;4.10;99.90;;;;;;5031336;28;20204;-72
2024/03/02 02:45:08;;;;;;;6.80;5.20;;;4.10;99.90;;;;;;5031081;28;20235;-72
2024/03/02 02:47:35;;;;;;;5.63;3.85;;;4.10;99.90;;;;;;5030122;28;20673;-72
2024/03/02 02:50:03;;;;;;;6.90;4.60;;;4.10;99.90;;;;;;5030916;28;20274;-72
2024/03/02 02:52:35;;;;;;;7.07;4.70;;;4.00;99.90;;;;;;5030862;28;20222;-71
2024/03/02 02:55:02;;;;;;;6.70;4.30;;;4.00;99.90;;;;;;5031231;28;20310;-72
2024/03/02 02:57:34;;;;;;;6.60;4.38;;;3.90;99.90;;;;;;5030793;28;20212;-72
2024/03/02 03:00:01;;;;;;;7.03;4.60;;;3.90;99.90;;;;;;5030652;28;20278;-72
2024/03/02 03:02:30;;;;;;;6.78;4.90;;;3.80;99.90;;;;;;5030652;28;22167;-72
2024/03/02 03:04:57;;;;;;;6.50;3.35;;;3.70;99.90;;;;;;5031028;28;20228;-72
2024/03/02 03:07:24;;;;;;;8.07;4.20;;;3.60;99.90;;;;;;5030625;28;20556;-72
2024/03/02 03:09:50;;;;;;;4.60;3.63;;;3.50;99.90;;;;;;5030890;28;20224;-72
2024/03/02 03:12:17;;;;;;;6.20;4.25;;;3.40;99.90;;;;;;5030752;28;20667;-72
2024/03/02 03:14:45;;;;;;;4.93;4.22;;;3.30;99.90;;;;;;5030904;28;20223;-73
2024/03/02 03:17:12;;;;;;;5.90;3.78;;;3.30;99.90;;;;;;5030952;28;20204;-72
2024/03/02 03:19:39;;;;;;;4.55;3.28;;;3.20;99.90;;;;;;5030098;28;20201;-72
2024/03/02 03:22:06;;;;;;;10.00;5.63;;;3.10;99.90;;;;;;5030815;28;20203;-72
2024/03/02 03:24:33;;;;;;;5.95;2.90;;;3.00;99.90;;;;;;5030419;28;20230;-72
2024/03/02 03:26:59;;;;;;;5.93;4.43;;;2.90;99.90;;;;;;5030836;28;20206;-72
2024/03/02 03:29:26;;;;;;;6.78;4.35;;;2.80;99.90;;;;;;5030268;28;20597;-72
2024/03/02 03:31:54;;;;;;;5.30;4.03;;;2.80;99.90;;;;;;5030823;28;20207;-72
2024/03/02 03:34:21;;;;;;;7.50;4.65;;;2.70;99.90;;;;;;5030361;28;20230;-72
2024/03/02 03:36:47;;;;;;;3.35;3.00;;;2.70;99.90;;;;;;5030780;28;20211;-72
2024/03/02 03:39:14;;;;;;;5.65;4.43;;;2.70;99.90;;;;;;5030167;28;20201;-72
2024/03/02 03:41:41;;;;;;;5.63;3.42;;;2.70;99.90;;;;;;5030435;28;20579;-72
2024/03/02 03:44:08;;;;;;;6.38;3.72;;;2.60;99.90;;;;;;5030261;28;20723;-72
2024/03/02 03:46:35;;;;;;;6.25;4.70;;;2.60;99.90;;;;;;5030232;28;20239;-72
2024/03/02 03:49:03;;;;;;;4.35;3.20;;;2.60;99.90;;;;;;5030367;28;20599;-72
2024/03/02 03:51:30;;;;;;;5.32;3.53;;;2.50;99.90;;;;;;5030247;28;20214;-72
2024/03/02 03:53:58;;;;;;;3.88;3.45;;;2.50;99.90;;;;;;5030612;28;20304;-72
2024/03/02 03:56:24;;;;;;;9.15;4.35;;;2.50;99.90;;;;;;5030258;28;20453;-72
2024/03/02 03:58:51;;;;;;;3.90;3.30;;;2.50;99.90;;;;;;5030290;28;20213;-72
2024/03/02 04:01:18;;;;;;;7.20;4.53;;;2.40;99.90;;;;;;5030279;28;20210;-72
2024/03/02 04:03:44;;;;;;;4.78;3.85;;;2.40;99.90;;;;;;5030372;28;20325;-72
2024/03/02 04:06:13;;;;;;;5.45;3.33;;;2.40;99.90;;;;;;5030510;28;20257;-72
2024/03/02 04:08:40;;;;;;;7.18;4.10;;;2.30;99.90;;;;;;5030304;28;20210;-72
2024/03/02 04:11:07;;;;;;;5.47;3.80;;;2.30;99.90;;;;;;5030676;28;20238;-72
2024/03/02 04:13:34;;;;;;;5.13;3.92;;;2.20;99.90;;;;;;5034013;28;20226;-72
2024/03/02 04:16:01;;;;;;;5.47;3.85;;;2.20;99.90;;;;;;5034043;28;20206;-72
2024/03/02 04:18:27;;;;;;;6.00;5.10;;;2.20;99.90;;;;;;5033397;28;20293;-72
2024/03/02 04:20:54;;;;;;;7.47;4.35;;;2.20;99.90;;;;;;5033896;28;20199;-72
2024/03/02 04:23:22;;;;;;;4.88;4.20;;;2.10;99.90;;;;;;5033719;28;20217;-72
2024/03/02 04:25:49;;;;;;;6.90;4.28;;;2.00;99.90;;;;;;5033961;28;20213;-72
2024/03/02 04:28:16;;;;;;;7.35;4.35;;;2.00;99.90;;;;;;5033703;28;20210;-72
2024/03/02 04:30:43;;;;;;;7.38;3.78;;;2.00;99.90;;;;;;5033168;28;20233;-72
2024/03/02 04:33:10;;;;;;;5.78;4.10;;;2.00;99.90;;;;;;5033802;28;20210;-72
2024/03/02 04:35:37;;;;;;;6.45;3.45;;;1.90;99.90;;;;;;5033708;28;20271;-72
2024/03/02 04:38:04;;;;;;;6.50;3.30;;;2.00;99.90;;;;;;5033739;28;20620;-73
2024/03/02 04:40:32;;;;;;;6.78;4.00;;;1.90;99.90;;;;;;5033162;28;20596;-72
2024/03/02 04:43:00;;;;;;;6.60;4.05;;;1.90;99.90;;;;;;5033646;28;20272;-72
2024/03/02 04:45:26;;;;;;;6.20;4.15;;;1.90;99.90;;;;;;5033057;28;20229;-72
2024/03/02 04:47:53;;;;;;;4.82;4.30;;;1.90;99.90;;;;;;5033310;28;20206;-72
2024/03/02 04:50:20;;;;;;;7.40;4.55;;;1.90;99.90;;;;;;5032788;28;20718;-72
2024/03/02 04:52:46;;;;;;;5.68;4.53;;;1.90;99.90;;;;;;5025703;28;20213;-72
2024/03/02 04:55:45;;;;;;;5.60;4.15;;;1.90;99.90;;;;;;5033209;28;20226;-72
2024/03/02 04:58:13;;;;;;;5.40;3.78;;;1.80;99.90;;;;;;5032904;28;20202;-72
2024/03/02 05:00:39;;;;;;;4.43;3.35;;;1.80;99.90;;;;;;5032557;28;20217;-72
2024/03/02 05:03:06;;;;;;;6.75;4.55;;;1.70;99.90;;;;;;5033709;28;20202;-72
2024/03/02 05:05:33;;;;;;;5.82;3.65;;;1.70;99.90;;;;;;5032765;28;20749;-72
2024/03/02 05:08:00;;;;;;;7.75;4.10;;;1.70;99.90;;;;;;5033280;28;20206;-72
2024/03/02 05:10:26;;;;;;;6.28;4.13;;;1.70;99.90;;;;;;5032526;28;20252;-72
2024/03/02 05:12:59;;;;;;;8.30;4.95;;;1.70;99.90;;;;;;5032960;28;20555;-72
2024/03/02 05:15:27;;;;;;;5.60;3.92;;;1.70;99.90;;;;;;5032523;28;20225;-72
2024/03/02 05:17:54;;;;;;;8.23;4.55;;;1.60;99.90;;;;;;5032966;28;20221;-72
2024/03/02 05:20:21;;;;;;;5.95;3.88;;;1.60;99.90;;;;;;5032424;28;20206;-72
2024/03/02 05:22:48;;;;;;;7.28;4.22;;;1.60;99.90;;;;;;5032361;28;20206;-72
2024/03/02 05:25:15;;;;;;;7.13;4.43;;;1.60;99.90;;;;;;5032639;28;20603;-72
2024/03/02 05:27:41;;;;;;;4.60;3.20;;;1.60;99.90;;;;;;5032222;28;20214;-71
2024/03/02 05:30:09;;;;;;;7.00;4.45;;;1.60;99.90;;;;;;5032195;28;20245;-73
2024/03/02 05:32:38;;;;;;;4.97;4.18;;;1.60;99.90;;;;;;5032612;28;20301;-73
2024/03/02 05:35:05;;;;;;;10.15;5.15;;;1.60;99.90;;;;;;5032455;28;20260;-73
2024/03/02 05:37:32;;;;;;;4.00;3.10;;;1.60;99.90;;;;;;5031998;28;20207;-72
2024/03/02 05:39:59;;;;;;;6.35;4.55;;;1.60;99.90;;;;;;5032124;28;20198;-72
2024/03/02 05:42:26;;;;;;;7.25;4.85;;;1.60;99.90;;;;;;5034669;28;20229;-73
2024/03/02 05:44:54;;;;;;;5.60;4.00;;;1.60;99.90;;;;;;5025332;28;20222;-73
2024/03/02 05:47:20;;;;;;;6.47;5.13;;;1.60;99.90;;;;;;5032119;28;20202;-73
2024/03/02 05:49:48;;;;;;;11.27;4.32;;;1.60;99.90;;;;;;5031500;28;20237;-73
2024/03/02 05:52:15;;;;;;;4.85;4.28;;;1.60;99.90;;;;;;5032050;28;20198;-73
2024/03/02 05:54:42;;;;;;;11.02;5.10;;;1.60;99.90;;;;;;5031755;28;20226;-73
2024/03/02 05:57:31;;;;;;;6.15;4.30;;;1.60;99.90;;;;;;5032095;28;20206;-73
2024/03/02 05:59:58;;;;;;;6.68;5.38;;;1.60;99.90;;;;;;5031780;28;20194;-73
2024/03/02 06:02:24;;;;;;;7.72;4.57;;;1.60;99.90;;;;;;5031749;28;20232;-73
2024/03/02 06:04:53;;;;;;;5.13;4.43;;;1.60;99.90;;;;;;5031497;28;20218;-73
2024/03/02 06:07:20;;;;;;;8.38;3.88;;;1.60;99.90;;;;;;5031673;28;20464;-71
2024/03/02 06:09:48;;;;;;;5.22;3.33;;;1.60;99.90;;;;;;5031173;28;20698;-71
2024/03/02 06:12:15;;;;;;;5.90;3.97;;;1.70;99.90;;;;;;5031977;28;20206;-71
2024/03/02 06:14:41;;;;;;;7.10;4.15;;;1.70;99.90;;;;;;5031524;28;20241;-71
2024/03/02 06:17:08;;;;;;;5.40;4.25;;;1.80;99.90;;;;;;5031808;28;20209;-70
2024/03/02 06:19:35;;;;;;;7.18;4.13;;;1.80;99.90;;;;;;5030830;28;20205;-71
2024/03/02 06:22:03;;;;;;;7.72;3.72;;;1.80;99.90;;;;;;5031512;28;20285;-71
2024/03/02 06:24:30;;;;;;;6.28;4.05;;;1.80;99.90;;;;;;5031107;28;20256;-71
2024/03/02 06:26:57;;;;;;;7.53;4.88;;;1.90;99.90;;;;;;5031343;28;20210;-71
2024/03/02 06:29:23;;;;;;;4.82;3.25;;;1.90;99.90;;;;;;5031055;28;20214;-71
2024/03/02 06:31:50;;;;;;;7.40;5.95;;;2.00;99.90;;;;;;5031101;28;20230;-71
2024/03/02 06:34:17;;;;;;;7.60;4.70;;;2.10;99.90;;;;;;5030883;28;20601;-70
2024/03/02 06:36:43;;;;;;;9.07;4.50;;;2.20;99.90;;;;;;5029433;28;20204;-71
2024/03/02 06:39:12;;;;;;;5.20;3.37;;;2.30;99.90;;;;;;5024471;28;20224;-71
2024/03/02 06:41:39;;;;;;;9.35;5.00;;;2.30;99.90;;;;;;5032476;28;20206;-71
2024/03/02 06:44:06;;;;;;;8.85;3.70;;;2.40;99.90;;;;;;5031009;28;20226;-71
2024/03/02 06:46:33;;;;;;;6.90;4.03;;;2.50;99.90;;;;;;5031046;28;20648;-71
2024/03/02 06:49:02;;;;;;;4.75;3.58;;;2.60;99.90;;;;;;5030905;28;20206;-71
2024/03/02 06:51:28;;;;;;;8.10;5.30;;;2.70;99.90;;;;;;5031322;28;20313;-71
2024/03/02 06:53:55;;;;;;;7.88;4.95;;;2.80;99.90;;;;;;5031043;28;20601;-71
2024/03/02 06:56:23;;;;;;;7.13;4.10;;;2.90;99.90;;;;;;5030005;28;20206;-71
2024/03/02 06:58:50;;;;;;;7.90;4.25;;;3.00;99.90;;;;;;5033445;28;20578;-71
2024/03/02 07:01:17;;;;;;;6.85;5.00;;;3.10;99.90;;;;;;5030758;28;20204;-71
2024/03/02 07:03:43;;;;;;;7.75;4.38;;;3.20;99.90;;;;;;5030059;28;20233;-71
2024/03/02 07:06:10;;;;;;;6.28;4.55;;;3.30;99.90;;;;;;5030790;28;20299;-71
2024/03/02 07:08:37;;;;;;;7.95;4.75;;;3.40;99.90;;;;;;5030089;28;20211;-71
2024/03/02 07:11:04;;;;;;;4.43;3.85;;;3.60;99.90;;;;;;5028764;28;20230;-71
2024/03/02 07:13:32;;;;;;;6.05;3.38;;;3.70;99.90;;;;;;5036776;28;20220;-70
2024/03/02 07:16:27;;;;;;;7.50;4.50;;;4.00;99.90;;;;;;5030448;28;20587;-71
2024/03/02 07:18:55;;;;;;;7.65;4.60;;;4.50;99.90;;;;;;5029990;28;20207;-70
2024/03/02 07:21:22;;;;;;;8.02;4.72;;;5.10;99.90;;;;;;5030644;28;20205;-70
2024/03/02 07:23:48;;;;;;;5.82;4.60;;;5.40;99.90;;;;;;5030477;28;20231;-72
2024/03/02 07:26:14;;;;;;;6.90;4.57;;;6.00;99.90;;;;;;5030406;28;20223;-71
2024/03/02 07:28:43;;;;;;;7.35;4.70;;;6.80;99.90;;;;;;5030131;28;20647;-71
2024/03/02 07:31:10;;;;;;;6.13;4.35;;;7.70;99.90;;;;;;5030342;28;20713;-71
2024/03/02 07:33:37;;;;;;;6.82;4.57;;;8.40;99.90;;;;;;5029952;28;20279;-72
2024/03/02 07:36:05;;;;;;;6.72;4.38;;;8.50;99.90;;;;;;5023271;28;20205;-71
2024/03/02 07:38:34;;;;;;;6.60;5.10;;;8.20;99.90;;;;;;5031546;28;20229;-71
2024/03/02 07:41:01;;;;;;;7.05;4.78;;;7.80;99.90;;;;;;5027223;28;20198;-71
2024/03/02 07:43:28;;;;;;;5.65;3.70;;;7.40;99.90;;;;;;5016530;28;23151;-71
2024/03/02 07:45:56;;;;;;;6.32;4.15;;;7.20;99.90;;;;;;5019721;28;20214;-71
2024/03/02 07:48:23;;;;;;;7.35;4.57;;;7.00;99.90;;;;;;5033154;28;20215;-72
2024/03/02 07:50:50;;;;;;;5.78;3.75;;;6.70;99.90;;;;;;5022777;28;20225;-71
2024/03/02 07:53:17;;;;;;;5.60;4.15;;;6.60;99.90;;;;;;5024442;28;20210;-71
2024/03/02 07:55:44;;;;;;;6.72;4.57;;;6.50;99.90;;;;;;5033478;28;20218;-72
2024/03/02 07:58:11;;;;;;;6.72;4.43;;;6.60;99.90;;;;;;5034140;28;20292;-72
2024/03/02 08:00:39;;;;;;;7.68;4.88;;;6.60;99.90;;;;;;5033921;28;20670;-72
2024/03/02 08:03:10;;;;;;;6.25;4.53;;;6.70;99.90;;;;;;5029231;28;20205;-72
2024/03/02 08:05:37;;;;;;;8.95;5.00;;;6.80;99.90;;;;;;5034018;28;20221;-72
2024/03/02 08:08:05;;;;;;;8.18;4.90;;;6.90;99.90;;;;;;5033816;28;20213;-72
2024/03/02 08:10:33;;;;;;;4.68;3.88;;;7.20;99.90;;;;;;5033826;28;20229;-71
2024/03/02 08:13:00;;;;;;;7.43;4.13;;;7.40;99.90;;;;;;5034047;28;20206;-72
2024/03/02 08:15:26;;;;;;;7.18;4.32;;;7.80;99.90;;;;;;5033993;28;20610;-72
2024/03/02 08:17:53;;;;;;;6.85;3.95;;;8.30;99.90;;;;;;5033825;28;20228;-72
2024/03/02 08:20:21;;;;;;;4.53;3.67;;;8.90;99.90;;;;;;5033532;28;20209;-72
2024/03/02 08:22:48;;;;;;;5.15;4.65;;;9.70;99.90;;;;;;5033631;28;20208;-72
2024/03/02 08:25:15;;;;;;;4.90;3.78;;;10.60;99.90;;;;;;5033830;28;20229;-72
2024/03/02 08:27:42;;;;;;;6.22;3.65;;;11.50;99.90;;;;;;5033671;28;20212;-71
2024/03/02 08:30:10;;;;;;;5.30;3.60;;;11.80;99.90;;;;;;5033480;28;20216;-72
2024/03/02 08:32:37;;;;;;;5.70;4.25;;;11.80;99.90;;;;;;5033524;28;20237;-72
2024/03/02 08:35:05;;;;;;;6.05;4.15;;;12.00;99.90;;;;;;5033371;28;20246;-72
2024/03/02 08:37:33;;;;;;;4.82;3.67;;;12.40;99.90;;;;;;5033404;28;20206;-72
2024/03/02 08:40:00;;;;;;;5.25;4.10;;;13.30;99.90;;;;;;5033021;28;20210;-72
2024/03/02 08:42:27;;;;;;;4.65;3.95;;;14.00;99.90;;;;;;5033674;28;20206;-72
2024/03/02 08:44:54;;;;;;;4.90;3.67;;;14.20;99.90;;;;;;5033220;28;20237;-71
2024/03/02 08:47:20;;;;;;;4.40;3.73;;;14.50;99.90;;;;;;5033432;28;20848;-71
2024/03/02 08:49:47;;;;;;;4.60;3.80;;;14.50;99.90;;;;;;5033232;28;20796;-72
2024/03/02 08:52:14;;;;;;;4.77;3.03;;;15.20;99.90;;;;;;5033207;28;21016;-72
2024/03/02 08:54:42;;;;;;;5.97;2.93;;;15.60;99.90;;;;;;5033102;28;20488;-72
2024/03/02 08:57:08;;;;;;;5.00;3.27;;;15.70;99.90;;;;;;5032416;28;20983;-72
2024/03/02 08:59:35;;;;;;;5.83;3.70;;;15.50;99.90;;;;;;5032858;28;20464;-72
2024/03/02 09:02:02;;;;;;;3.90;3.30;;;15.40;99.90;;;;;;5032847;28;20457;-72
2024/03/02 09:04:29;;;;;;;3.73;3.33;;;15.80;99.90;;;;;;5032741;28;20492;-72
2024/03/02 09:06:56;;;;;;;5.07;3.60;;;16.60;99.90;;;;;;5033045;28;20472;-73
2024/03/02 09:09:23;;;;;;;3.50;3.20;;;17.80;99.90;;;;;;5032521;28;20487;-73
2024/03/02 09:11:51;;;;;;;4.67;2.97;;;18.30;99.60;;;;;;5032612;28;20491;-73
2024/03/02 09:14:17;;;;;;;3.70;3.40;;;18.40;99.80;;;;;;5032703;28;20488;-72
2024/03/02 09:16:44;;;;;;;3.30;2.97;;;19.00;99.80;;;;;;5032869;28;20456;-73
2024/03/02 09:19:11;;;;;;;3.20;2.77;;;19.30;98.30;;;;;;5032515;28;20465;-74
2024/03/02 09:21:37;;;;;;;3.93;3.03;;;20.30;98.20;;;;;;5032670;28;20476;-74
2024/03/02 09:24:06;;;;;;;3.60;3.23;;;20.60;96.10;;;;;;5032784;28;20841;-74
2024/03/02 09:26:33;;;;;;;3.30;2.90;;;20.40;95.80;;;;;;5032604;28;20461;-74
2024/03/02 09:29:01;;;;;;;3.90;3.20;;;19.70;95.10;;;;;;5032034;28;20974;-74
2024/03/02 09:31:28;;;;;;;3.50;3.20;;;19.20;96.10;;;;;;5032309;28;21031;-74
2024/03/02 09:33:54;;;;;;;3.10;2.80;;;19.90;97.40;;;;;;5032921;28;20650;-74
2024/03/02 09:36:23;;;;;;;2.83;2.53;;;20.80;96.00;;;;;;5032205;28;20467;-74
2024/03/02 09:38:49;;;;;;;3.80;2.47;;;21.70;95.50;;;;;;5032120;28;20496;-73
2024/03/02 09:41:16;;;;;;;3.07;2.53;;;22.70;93.70;;;;;;5032200;28;20468;-74
2024/03/02 09:43:43;;;;;;;2.47;2.27;;;22.90;91.90;;;;;;5028046;28;20476;-73
2024/03/02 09:46:11;;;;;;;3.40;2.93;;;22.10;91.50;;;;;;5031991;28;20847;-74
2024/03/02 09:48:39;;;;;;;2.70;2.50;;;21.70;92.20;;;;;;5031883;28;20467;-74
2024/03/02 09:51:06;;;;;;;3.13;2.67;;;21.20;92.20;;;;;;5031624;28;20488;-73
2024/03/02 09:53:34;;;;;;;6.90;2.87;;;20.60;92.20;;;;;;5031895;28;20492;-73
2024/03/02 09:56:01;;;;;;;2.97;1.93;;;20.80;93.70;;;;;;5030462;28;20472;-73
2024/03/02 09:58:28;;;;;;;2.80;2.37;;;21.10;92.10;;;;;;5031004;28;20467;-74
2024/03/02 10:00:55;;;;;;;2.23;2.03;;;21.70;92.30;;;;;;5031556;28;20483;-73
2024/03/02 10:03:24;;;;;;;2.13;1.70;;;22.10;91.00;;;;;;5031752;28;20836;-74
2024/03/02 10:05:51;;;;;;;2.20;1.77;;;22.30;91.40;;;;;;5031880;28;20530;-73
2024/03/02 10:08:18;;;;;;;2.50;2.30;;;22.40;90.40;;;;;;5028072;28;20467;-73
2024/03/02 10:10:45;;;;;;;1.77;1.63;;;22.20;91.10;;;;;;5027799;28;20461;-73
2024/03/02 10:13:13;;;;;;;2.47;2.17;;;22.90;91.30;;;;;;5028276;28;21049;-73
2024/03/02 10:15:41;;;;;;;2.87;1.67;;;23.20;88.40;;;;;;5028798;28;20468;-73
2024/03/02 10:18:10;;;;;;;2.10;1.67;;;23.00;90.30;;;;;;5029794;28;20878;-72
2024/03/02 10:20:38;;;;;;;1.93;1.50;;;22.70;89.70;;;;;;5029002;28;20460;-72
2024/03/02 10:23:13;;;;;;;1.90;1.73;;;22.90;89.70;;;;;;5028355;28;20464;-72
2024/03/02 10:25:40;;;;;;;2.00;1.80;;;22.40;90.10;;;;;;5028559;28;20501;-72
2024/03/02 10:28:06;;;;;;;2.10;1.90;;;22.40;90.10;;;;;;5028459;28;20468;-72
2024/03/02 10:30:34;;;;;;;1.73;1.47;;;22.70;90.70;;;;;;5028358;28;20467;-72
2024/03/02 10:33:02;;;;;;;1.97;1.50;;;23.30;90.80;;;;;;5028207;28;20546;-72
2024/03/02 10:35:31;;;;;;;2.60;1.67;;;23.90;86.60;;;;;;5028222;28;21095;-72
2024/03/02 10:37:59;;;;;;;1.87;1.50;;;23.90;88.70;;;;;;5028325;28;20464;-72
2024/03/02 10:40:27;;;;;;;2.27;1.90;;;24.00;89.50;;;;;;5029067;28;20457;-72
2024/03/02 10:42:54;;;;;;;2.60;2.40;;;24.90;90.00;;;;;;5031236;28;20452;-72
2024/03/02 10:45:22;;;;;;;2.23;1.90;;;25.30;90.10;;;;;;5028239;28;20488;-72
2024/03/02 10:47:48;;;;;;;1.83;1.47;;;25.40;86.20;;;;;;5031124;28;20499;-71
2024/03/02 10:50:15;;;;;;;1.97;1.83;;;25.50;87.40;;;;;;5030602;28;20492;-72
2024/03/02 10:52:42;;;;;;;2.07;1.87;;;25.80;88.10;;;;;;5031097;28;20829;-71
2024/03/02 10:55:12;;;;;;;2.60;2.13;;;26.10;86.90;;;;;;5030749;28;20963;-72
2024/03/02 10:57:50;;;;;;;2.47;2.27;;;26.00;85.70;;;;;;5031063;28;20453;-71
2024/03/02 11:00:19;;;;;;;2.33;2.03;;;26.10;86.40;;;;;;5030684;28;20468;-71
2024/03/02 11:02:52;;;;;;;2.10;1.90;;;26.20;85.10;;;;;;5026366;28;20825;-72
2024/03/02 11:05:27;;;;;;;3.50;2.30;;;26.60;86.10;;;;;;5030665;28;20485;-72
2024/03/02 11:07:57;;;;;;;2.40;2.20;;;26.60;85.30;;;;;;5030901;28;20466;-73
2024/03/02 11:10:26;;;;;;;2.67;2.20;;;26.80;85.00;;;;;;5028001;28;20452;-73
2024/03/02 11:13:01;;;;;;;1.40;1.30;;;27.20;84.80;;;;;;5030474;28;20493;-73
2024/03/02 11:15:28;;;;;;;1.77;1.30;;;27.20;82.50;;;;;;5030800;28;20826;-72
2024/03/02 11:17:56;;;;;;;1.57;1.40;;;27.50;82.70;;;;;;5030649;28;20479;-73
2024/03/02 11:20:24;;;;;;;1.70;1.57;;;27.70;80.70;;;;;;5031345;28;20471;-73
2024/03/02 11:22:51;;;;;;;1.50;1.40;;;27.50;80.20;;;;;;5033566;28;20917;-72
2024/03/02 11:25:26;;;;;;;1.60;1.50;;;27.50;83.20;;;;;;5034300;28;20495;-71
2024/03/02 11:28:03;;;;;;;2.00;1.60;;;27.60;81.50;;;;;;5034685;28;20460;-72
2024/03/02 11:30:52;;;;;;;3.13;1.80;;;27.40;81.20;;;;;;5032801;28;20945;-72
2024/03/02 11:33:27;;;;;;;2.07;1.63;;;27.60;81.40;;;;;;5034472;28;20653;-72
2024/03/02 11:35:54;;;;;;;2.90;2.27;;;27.40;82.90;;;;;;5034534;28;20474;-72
2024/03/02 11:38:20;;;;;;;2.27;1.67;;;27.80;81.80;;;;;;5034430;28;20468;-71
2024/03/02 11:40:49;;;;;;;1.83;1.50;;;27.30;79.00;;;;;;5034440;28;20460;-72
2024/03/02 11:43:16;;;;;;;2.17;1.90;;;26.80;82.50;;;;;;5034200;28;20474;-71
2024/03/02 11:45:44;;;;;;;2.03;1.83;;;26.90;82.10;;;;;;5034144;28;20475;-72
2024/03/02 11:48:14;;;;;;;2.07;1.97;;;27.20;80.70;;;;;;5034163;28;20461;-71
2024/03/02 11:50:44;;;;;;;2.30;2.10;;;26.40;81.70;;;;;;5033960;28;20976;-71
2024/03/02 11:53:12;;;;;;;2.00;1.80;;;25.70;81.80;;;;;;5033981;28;20480;-71
2024/03/02 11:55:40;;;;;;;2.83;2.63;;;25.30;82.10;;;;;;5034229;28;20464;-72
2024/03/02 11:58:09;;;;;;;1.93;1.73;;;24.60;83.50;;;;;;5033763;28;20518;-71
2024/03/02 12:00:36;;;;;;;2.57;1.83;;;24.30;84.10;;;;;;5033935;28;20464;-71
2024/03/02 12:03:04;;;;;;;1.80;1.70;;;23.80;84.30;;;;;;5034568;28;20488;-72
2024/03/02 12:05:32;;;;;;;1.43;1.20;;;23.80;85.30;;;;;;5034009;28;20864;-71
2024/03/02 12:07:59;;;;;;;1.87;1.47;;;23.80;84.30;;;;;;5034256;28;20511;-71
2024/03/02 12:10:26;;;;;;;1.30;1.20;;;24.30;83.80;;;;;;5033613;28;20981;-71
2024/03/02 12:12:58;;;;;;;1.80;1.30;;;24.70;85.00;;;;;;5038282;28;20488;-74
2024/03/02 12:15:28;;;;;;;1.57;1.47;;;24.70;83.40;;;;;;5034431;28;20476;-73
2024/03/02 12:17:55;;;;;;;1.27;1.10;;;24.60;83.10;;;;;;5034176;28;20457;-73
2024/03/02 12:20:23;;;;;;;1.30;1.20;;;25.10;83.10;;;;;;5033359;28;20471;-74
2024/03/02 12:22:50;;;;;;;1.50;1.40;;;25.40;82.10;;;;;;5033677;28;20456;-73
2024/03/02 12:25:17;;;;;;;1.47;1.30;;;25.00;82.50;;;;;;5033594;28;20996;-73
2024/03/02 12:27:45;;;;;;;1.43;1.10;;;25.50;82.40;;;;;;5027699;28;20452;-74
2024/03/02 12:30:13;;;;;;;1.30;1.20;;;25.60;82.00;;;;;;5033643;28;20522;-73
2024/03/02 12:32:41;;;;;;;1.50;1.07;;;25.30;81.40;;;;;;5032832;28;20485;-73
2024/03/02 12:35:11;;;;;;;1.83;1.63;;;25.20;82.20;;;;;;5033380;28;20484;-73
2024/03/02 12:37:44;;;;;;;2.23;1.50;;;25.50;80.00;;;;;;5033391;28;20492;-73
2024/03/02 12:40:12;;;;;;;1.50;1.40;;;25.70;80.00;;;;;;5033214;28;20522;-74
2024/03/02 12:42:38;;;;;;;1.40;1.30;;;25.60;79.70;;;;;;5033310;28;20469;-73
2024/03/02 12:45:06;;;;;;;2.10;1.90;;;26.00;81.90;;;;;;5032914;28;20511;-74
2024/03/02 12:47:33;;;;;;;1.70;1.53;;;26.30;78.90;;;;;;5033371;28;20472;-74
2024/03/02 12:50:03;;;;;;;1.47;1.37;;;25.50;79.70;;;;;;5032876;28;20460;-74
2024/03/02 12:52:29;;;;;;;2.40;1.23;;;25.60;80.30;;;;;;5033029;28;20481;-74
2024/03/02 12:54:58;;;;;;;1.77;1.20;;;25.90;80.10;;;;;;5033183;28;20945;-73